createdAt,value
2017-08-17T00:01:22.901Z,43.67
2017-08-17T00:03:50.759Z,46.13
2017-08-17T00:06:18.368Z,48.77
2017-08-17T00:08:45.884Z,55.23
2017-08-17T00:11:13.391Z,52.93
2017-08-17T00:13:40.931Z,64.03
2017-08-17T00:16:08.438Z,49.27
2017-08-17T00:18:35.955Z,36.40
2017-08-17T00:21:03.492Z,43.57
2017-08-17T00:23:31.010Z,42.90
2017-08-17T00:25:58.522Z,46.73
2017-08-17T00:28:26.055Z,36.47
2017-08-17T00:30:53.572Z,39.60
2017-08-17T00:33:21.078Z,35.73
2017-08-17T00:35:48.624Z,33.27
2017-08-17T00:38:16.131Z,40.20
2017-08-17T00:40:43.640Z,38.03
2017-08-17T00:43:11.166Z,37.13
2017-08-17T00:45:38.678Z,38.83
2017-08-17T00:48:06.186Z,33.90
2017-08-17T00:50:33.715Z,28.40
2017-08-17T00:53:01.221Z,29.63
2017-08-17T00:55:28.730Z,27.83
2017-08-17T00:57:56.263Z,25.03
2017-08-17T01:00:23.735Z,23.03
2017-08-17T01:02:51.279Z,25.43
2017-08-17T01:05:18.819Z,29.00
2017-08-17T01:07:46.331Z,25.40
2017-08-17T01:10:13.847Z,21.10
2017-08-17T01:12:41.378Z,29.60
2017-08-17T01:15:08.887Z,27.97
2017-08-17T01:17:36.399Z,26.00
2017-08-17T01:20:03.931Z,25.53
2017-08-17T01:22:31.446Z,34.53
2017-08-17T01:24:58.963Z,35.63
2017-08-17T01:27:26.502Z,54.23
2017-08-17T01:29:54.018Z,60.07
2017-08-17T01:32:21.895Z,43.23
2017-08-17T01:34:49.431Z,39.83
2017-08-17T01:37:16.939Z,44.10
2017-08-17T01:39:44.451Z,33.10
2017-08-17T01:42:11.995Z,37.17
2017-08-17T01:44:39.504Z,51.23
2017-08-17T01:47:31.797Z,34.57
2017-08-17T01:49:59.315Z,37.43
2017-08-17T01:52:26.819Z,38.70
2017-08-17T01:54:54.351Z,37.77
2017-08-17T01:57:21.863Z,34.47
2017-08-17T01:59:49.367Z,52.33
2017-08-17T02:02:16.906Z,81.57
2017-08-17T02:04:44.419Z,114.43
2017-08-17T02:07:11.931Z,140.87
2017-08-17T02:09:39.470Z,89.67
2017-08-17T02:12:06.982Z,116.87
2017-08-17T02:14:34.503Z,135.83
2017-08-17T02:17:02.045Z,125.77
2017-08-17T02:19:29.558Z,119.23
2017-08-17T02:21:57.070Z,117.90
2017-08-17T02:24:24.606Z,65.07
2017-08-17T02:26:52.163Z,78.93
2017-08-17T02:29:19.687Z,50.97
2017-08-17T02:31:47.207Z,45.83
2017-08-17T02:34:14.747Z,43.73
2017-08-17T02:36:42.258Z,45.33
2017-08-17T02:39:09.776Z,36.27
2017-08-17T02:41:37.335Z,38.90
2017-08-17T02:44:04.846Z,34.57
2017-08-17T02:46:32.363Z,33.17
2017-08-17T02:48:59.903Z,34.73
2017-08-17T02:51:27.410Z,33.60
2017-08-17T02:53:54.927Z,41.03
2017-08-17T02:56:22.467Z,38.83
2017-08-17T02:58:49.984Z,62.30
2017-08-17T03:01:17.504Z,109.73
2017-08-17T03:03:45.059Z,80.63
2017-08-17T03:06:12.579Z,73.00
2017-08-17T03:08:40.119Z,85.63
2017-08-17T03:11:07.671Z,86.53
2017-08-17T03:13:35.184Z,86.53
2017-08-17T03:16:02.695Z,71.77
2017-08-17T03:18:30.190Z,77.47
2017-08-17T03:20:57.724Z,58.63
2017-08-17T03:23:25.238Z,55.20
2017-08-17T03:25:52.771Z,60.23
2017-08-17T03:28:20.292Z,58.17
2017-08-17T03:30:47.798Z,53.07
2017-08-17T03:33:15.339Z,45.90
2017-08-17T03:35:42.847Z,53.70
2017-08-17T03:38:10.364Z,55.73
2017-08-17T03:40:37.899Z,43.37
2017-08-17T03:43:05.484Z,47.40
2017-08-17T03:45:32.999Z,44.93
2017-08-17T03:48:00.535Z,49.53
2017-08-17T03:50:28.043Z,45.87
2017-08-17T03:52:55.555Z,61.03
2017-08-17T03:55:23.108Z,49.50
2017-08-17T03:57:50.620Z,47.77
2017-08-17T04:00:18.134Z,50.80
2017-08-17T04:02:45.667Z,49.60
2017-08-17T04:05:13.182Z,53.53
2017-08-17T04:07:40.697Z,50.57
2017-08-17T04:10:08.245Z,48.27
2017-08-17T04:12:35.770Z,38.00
2017-08-17T04:15:03.289Z,45.37
2017-08-17T04:17:30.819Z,51.33
2017-08-17T04:19:58.331Z,46.43
2017-08-17T04:22:25.874Z,42.33
2017-08-17T04:24:53.382Z,44.73
2017-08-17T04:27:20.895Z,44.30
2017-08-17T04:29:48.431Z,38.37
2017-08-17T04:32:15.934Z,36.67
2017-08-17T04:34:43.438Z,40.17
2017-08-17T04:37:10.974Z,53.07
2017-08-17T04:39:38.479Z,58.73
2017-08-17T04:42:05.990Z,72.87
2017-08-17T04:44:33.515Z,58.83
2017-08-17T04:47:01.032Z,63.53
2017-08-17T04:49:28.587Z,54.63
2017-08-17T04:51:56.129Z,43.97
2017-08-17T04:54:23.638Z,76.07
2017-08-17T04:59:59.330Z,64.53
2017-08-17T05:02:26.868Z,51.00
2017-08-17T05:04:54.388Z,55.57
2017-08-17T05:07:21.922Z,60.27
2017-08-17T05:09:49.450Z,43.70
2017-08-17T05:12:16.987Z,34.83
2017-08-17T05:14:44.520Z,43.20
2017-08-17T05:17:12.060Z,37.90
2017-08-17T05:19:39.590Z,36.60
2017-08-17T05:22:07.123Z,41.70
2017-08-17T05:24:34.654Z,34.13
2017-08-17T05:27:02.178Z,33.80
2017-08-17T05:29:29.696Z,28.83
2017-08-17T05:31:57.236Z,38.97
2017-08-17T05:34:24.747Z,41.27
2017-08-17T05:36:52.263Z,77.10
2017-08-17T05:39:19.807Z,29.57
2017-08-17T05:41:47.318Z,37.20
2017-08-17T05:44:14.850Z,39.33
2017-08-17T05:46:42.363Z,35.17
2017-08-17T05:49:09.884Z,32.33
2017-08-17T05:51:37.418Z,35.67
2017-08-17T05:54:04.926Z,32.87
2017-08-17T05:56:32.463Z,41.93
2017-08-17T05:58:59.994Z,32.30
2017-08-17T06:01:27.523Z,37.80
2017-08-17T06:03:55.040Z,36.70
2017-08-17T06:06:22.560Z,38.93
2017-08-17T06:08:50.102Z,42.90
2017-08-17T06:11:17.635Z,36.30
2017-08-17T06:13:45.152Z,39.40
2017-08-17T06:16:12.686Z,32.77
2017-08-17T06:18:40.200Z,36.70
2017-08-17T06:21:07.715Z,42.73
2017-08-17T06:23:35.251Z,38.00
2017-08-17T06:26:02.835Z,36.50
2017-08-17T06:28:30.414Z,33.20
2017-08-17T06:30:57.931Z,34.27
2017-08-17T06:33:25.455Z,33.50
2017-08-17T06:35:52.986Z,38.10
2017-08-17T06:38:20.512Z,33.20
2017-08-17T06:40:48.047Z,57.20
2017-08-17T06:43:15.559Z,33.13
2017-08-17T06:45:43.075Z,28.63
2017-08-17T06:48:10.611Z,45.23
2017-08-17T06:50:38.147Z,34.50
2017-08-17T06:53:05.716Z,37.60
2017-08-17T06:55:33.250Z,35.17
2017-08-17T06:58:00.763Z,40.10
2017-08-17T07:00:28.275Z,32.00
2017-08-17T07:02:55.825Z,35.43
2017-08-17T07:05:23.376Z,32.23
2017-08-17T07:07:50.896Z,33.60
2017-08-17T07:10:18.435Z,35.07
2017-08-17T07:12:45.971Z,29.23
2017-08-17T07:15:13.486Z,40.60
2017-08-17T07:17:41.036Z,38.87
2017-08-17T07:20:08.580Z,33.80
2017-08-17T07:22:36.100Z,37.70
2017-08-17T07:25:03.627Z,38.07
2017-08-17T07:27:31.207Z,49.47
2017-08-17T07:29:58.746Z,33.33
2017-08-17T07:32:26.274Z,38.47
2017-08-17T07:34:53.778Z,30.20
2017-08-17T07:37:21.307Z,30.73
2017-08-17T07:39:48.851Z,29.83
2017-08-17T07:42:16.366Z,32.60
2017-08-17T07:44:43.910Z,32.07
2017-08-17T07:47:11.429Z,26.60
2017-08-17T07:49:38.966Z,26.50
2017-08-17T07:52:06.507Z,32.60
2017-08-17T07:54:34.027Z,29.63
2017-08-17T07:57:01.543Z,28.20
2017-08-17T07:59:29.289Z,33.20
2017-08-17T08:01:56.803Z,36.23
2017-08-17T08:04:24.319Z,34.73
2017-08-17T08:06:51.867Z,30.20
2017-08-17T08:09:19.382Z,28.60
2017-08-17T08:11:46.899Z,29.30
2017-08-17T08:14:14.447Z,32.77
2017-08-17T08:16:41.987Z,30.47
2017-08-17T08:19:09.500Z,29.90
2017-08-17T08:21:37.026Z,34.70
2017-08-17T08:24:04.563Z,37.63
2017-08-17T08:26:32.071Z,23.00
2017-08-17T08:28:59.602Z,36.13
2017-08-17T08:31:27.121Z,32.30
2017-08-17T08:33:54.670Z,36.83
2017-08-17T08:36:22.183Z,28.63
2017-08-17T08:38:49.701Z,29.27
2017-08-17T08:41:17.231Z,22.90
2017-08-17T08:43:44.738Z,29.43
2017-08-17T08:46:12.292Z,32.30
2017-08-17T08:48:39.836Z,28.77
2017-08-17T08:51:07.347Z,25.00
2017-08-17T08:53:34.878Z,29.67
2017-08-17T08:56:02.399Z,26.07
2017-08-17T08:58:29.915Z,34.63
2017-08-17T09:00:57.450Z,27.10
2017-08-17T09:03:24.963Z,28.87
2017-08-17T09:05:52.482Z,26.80
2017-08-17T09:08:20.021Z,26.20
2017-08-17T09:10:47.534Z,20.80
2017-08-17T09:13:15.045Z,24.73
2017-08-17T09:15:42.582Z,27.00
2017-08-17T09:18:10.123Z,23.90
2017-08-17T09:20:37.643Z,27.13
2017-08-17T09:23:05.176Z,30.03
2017-08-17T09:25:32.695Z,21.80
2017-08-17T09:28:00.233Z,22.87
2017-08-17T09:30:27.777Z,27.63
2017-08-17T09:32:55.299Z,33.63
2017-08-17T09:35:22.819Z,24.40
2017-08-17T09:37:50.363Z,24.60
2017-08-17T09:40:17.876Z,26.13
2017-08-17T09:42:45.403Z,24.53
2017-08-17T09:45:12.943Z,27.80
2017-08-17T09:47:40.455Z,30.30
2017-08-17T09:50:07.991Z,24.10
2017-08-17T09:52:35.535Z,30.07
2017-08-17T09:55:03.039Z,29.73
2017-08-17T09:57:30.591Z,27.27
2017-08-17T09:59:58.103Z,21.40
2017-08-17T10:02:25.610Z,20.90
2017-08-17T10:04:53.150Z,19.93
2017-08-17T10:07:20.667Z,27.77
2017-08-17T10:09:48.183Z,17.63
2017-08-17T10:12:15.714Z,26.87
2017-08-17T10:14:43.223Z,19.53
2017-08-17T10:17:10.726Z,22.33
2017-08-17T10:19:38.258Z,26.23
2017-08-17T10:22:05.770Z,40.13
2017-08-17T10:24:33.279Z,30.70
2017-08-17T10:27:00.823Z,38.13
2017-08-17T10:29:28.470Z,36.83
2017-08-17T10:31:56.175Z,43.23
2017-08-17T10:34:23.695Z,52.13
2017-08-17T10:36:51.364Z,37.30
2017-08-17T10:39:18.903Z,34.57
2017-08-17T10:41:46.419Z,45.67
2017-08-17T10:44:13.927Z,37.03
2017-08-17T10:46:41.421Z,43.13
2017-08-17T10:49:08.983Z,36.83
2017-08-17T10:51:36.513Z,43.00
2017-08-17T10:54:04.047Z,40.30
2017-08-17T10:56:31.562Z,48.10
2017-08-17T10:58:59.094Z,51.40
2017-08-17T11:01:26.607Z,46.63
2017-08-17T11:03:54.146Z,32.93
2017-08-17T11:06:21.667Z,40.60
2017-08-17T11:08:49.179Z,47.87
2017-08-17T11:11:16.719Z,40.83
2017-08-17T11:13:44.233Z,45.20
2017-08-17T11:16:11.752Z,34.23
2017-08-17T11:18:39.293Z,39.97
2017-08-17T11:21:06.773Z,34.10
2017-08-17T11:23:34.311Z,34.73
2017-08-17T11:26:01.851Z,31.57
2017-08-17T11:28:29.371Z,26.23
2017-08-17T11:30:56.879Z,37.50
2017-08-17T11:33:24.419Z,23.20
2017-08-17T11:35:51.931Z,25.23
2017-08-17T11:38:19.446Z,32.20
2017-08-17T11:40:46.986Z,25.13
2017-08-17T11:43:14.500Z,29.93
2017-08-17T11:45:42.016Z,33.37
2017-08-17T11:48:09.554Z,30.87
2017-08-17T11:50:37.086Z,36.90
2017-08-17T11:53:04.598Z,29.33
2017-08-17T11:55:32.136Z,32.47
2017-08-17T11:57:59.650Z,35.27
2017-08-17T12:00:27.162Z,39.37
2017-08-17T12:02:54.702Z,32.13
2017-08-17T12:05:22.214Z,36.50
2017-08-17T12:07:49.732Z,31.13
2017-08-17T12:10:17.268Z,44.90
2017-08-17T12:12:44.783Z,35.33
2017-08-17T12:15:12.298Z,38.53
2017-08-17T12:17:39.859Z,33.53
2017-08-17T12:20:07.378Z,31.87
2017-08-17T12:22:34.893Z,34.13
2017-08-17T12:25:02.434Z,39.47
2017-08-17T12:27:29.944Z,40.13
2017-08-17T12:29:57.463Z,41.13
2017-08-17T12:32:24.998Z,28.20
2017-08-17T12:34:52.515Z,40.00
2017-08-17T12:37:20.023Z,39.33
2017-08-17T12:39:47.576Z,23.73
2017-08-17T12:42:15.095Z,34.23
2017-08-17T12:44:42.607Z,28.57
2017-08-17T12:47:10.149Z,26.27
2017-08-17T12:49:37.666Z,29.53
2017-08-17T12:52:05.187Z,20.37
2017-08-17T12:54:32.723Z,22.67
2017-08-17T12:57:00.265Z,24.23
2017-08-17T12:59:27.779Z,22.97
2017-08-17T13:01:55.303Z,22.40
2017-08-17T13:04:22.839Z,24.50
2017-08-17T13:06:50.351Z,23.47
2017-08-17T13:09:17.871Z,22.27
2017-08-17T13:11:45.411Z,24.83
2017-08-17T13:14:12.935Z,27.30
2017-08-17T13:16:40.480Z,22.20
2017-08-17T13:19:07.999Z,27.00
2017-08-17T13:21:35.510Z,23.73
2017-08-17T13:24:03.059Z,22.40
2017-08-17T13:26:30.598Z,18.30
2017-08-17T13:28:58.110Z,23.00
2017-08-17T13:31:25.646Z,21.33
2017-08-17T13:33:53.154Z,28.03
2017-08-17T13:36:20.671Z,22.73
2017-08-17T13:38:48.207Z,18.60
2017-08-17T13:41:15.743Z,18.10
2017-08-17T13:43:43.258Z,24.23
2017-08-17T13:46:10.767Z,22.70
2017-08-17T13:48:38.304Z,20.13
2017-08-17T13:51:05.848Z,17.27
2017-08-17T13:53:33.363Z,19.07
2017-08-17T13:56:00.899Z,31.03
2017-08-17T13:58:28.419Z,22.13
2017-08-17T14:00:55.931Z,21.63
2017-08-17T14:03:23.471Z,23.17
2017-08-17T14:05:50.990Z,35.97
2017-08-17T14:08:18.516Z,27.07
2017-08-17T14:10:46.066Z,19.10
2017-08-17T14:13:13.575Z,15.70
2017-08-17T14:15:41.087Z,19.43
2017-08-17T14:18:08.614Z,28.50
2017-08-17T14:20:36.134Z,20.93
2017-08-17T14:23:03.652Z,17.10
2017-08-17T14:25:31.190Z,22.47
2017-08-17T14:27:58.711Z,19.77
2017-08-17T14:30:26.228Z,23.63
2017-08-17T14:32:53.766Z,20.70
2017-08-17T14:35:21.323Z,19.60
2017-08-17T14:37:48.842Z,16.30
2017-08-17T14:40:16.412Z,19.37
2017-08-17T14:42:43.929Z,26.47
2017-08-17T14:45:11.447Z,17.73
2017-08-17T14:47:38.995Z,20.80
2017-08-17T14:50:06.511Z,20.40
2017-08-17T14:52:34.033Z,19.43
2017-08-17T14:55:01.583Z,12.70
2017-08-17T14:57:29.094Z,14.83
2017-08-17T14:59:56.606Z,26.37
2017-08-17T15:02:24.151Z,20.30
2017-08-17T15:04:51.687Z,18.73
2017-08-17T15:07:19.212Z,17.10
2017-08-17T15:09:46.727Z,16.50
2017-08-17T15:12:14.516Z,17.50
2017-08-17T15:14:42.179Z,13.60
2017-08-17T15:17:09.702Z,25.27
2017-08-17T15:19:37.245Z,22.17
2017-08-17T15:22:04.782Z,25.00
2017-08-17T15:24:32.311Z,19.73
2017-08-17T15:26:59.827Z,20.77
2017-08-17T15:29:27.368Z,15.37
2017-08-17T15:31:54.882Z,17.47
2017-08-17T15:34:22.395Z,15.40
2017-08-17T15:36:49.938Z,13.97
2017-08-17T15:39:17.451Z,17.43
2017-08-17T15:41:45.472Z,18.13
2017-08-17T15:44:13.009Z,14.57
2017-08-17T15:46:40.538Z,14.80
2017-08-17T15:49:08.056Z,15.40
2017-08-17T15:51:35.591Z,17.47
2017-08-17T15:54:03.128Z,16.70
2017-08-17T15:56:30.643Z,20.20
2017-08-17T15:58:58.192Z,21.73
2017-08-17T16:01:25.702Z,22.60
2017-08-17T16:03:53.211Z,19.30
2017-08-17T16:06:20.747Z,15.50
2017-08-17T16:08:48.274Z,25.43
2017-08-17T16:11:15.820Z,14.97
2017-08-17T16:13:43.351Z,23.10
2017-08-17T16:16:10.871Z,23.77
2017-08-17T16:18:38.429Z,15.20
2017-08-17T16:21:06.006Z,17.67
2017-08-17T16:23:33.543Z,15.63
2017-08-17T16:26:01.087Z,24.13
2017-08-17T16:28:28.675Z,16.57
2017-08-17T16:30:56.210Z,22.80
2017-08-17T16:33:23.688Z,22.70
2017-08-17T16:35:51.231Z,15.40
2017-08-17T16:38:18.774Z,18.40
2017-08-17T16:40:46.286Z,16.50
2017-08-17T16:43:13.808Z,17.83
2017-08-17T16:45:41.342Z,24.13
2017-08-17T16:48:08.880Z,18.83
2017-08-17T16:50:36.409Z,14.67
2017-08-17T16:53:03.923Z,17.80
2017-08-17T16:55:31.458Z,21.83
2017-08-17T16:57:58.971Z,19.47
2017-08-17T17:00:26.482Z,19.97
2017-08-17T17:02:54.035Z,20.57
2017-08-17T17:05:21.555Z,17.20
2017-08-17T17:07:49.083Z,26.20
2017-08-17T17:10:16.627Z,22.80
2017-08-17T17:12:44.143Z,22.07
2017-08-17T17:15:11.691Z,14.50
2017-08-17T17:17:39.868Z,19.80
2017-08-17T17:20:07.387Z,19.97
2017-08-17T17:22:34.919Z,14.93
2017-08-17T17:25:02.496Z,16.67
2017-08-17T17:27:30.041Z,15.27
2017-08-17T17:29:57.555Z,15.73
2017-08-17T17:32:25.102Z,13.10
2017-08-17T17:34:52.630Z,15.20
2017-08-17T17:37:20.148Z,20.67
2017-08-17T17:39:47.691Z,16.37
2017-08-17T17:42:15.211Z,19.83
2017-08-17T17:44:42.723Z,21.20
2017-08-17T17:47:10.267Z,12.80
2017-08-17T17:49:37.783Z,17.03
2017-08-17T17:52:05.294Z,16.47
2017-08-17T17:54:32.843Z,15.60
2017-08-17T17:57:00.355Z,13.80
2017-08-17T17:59:27.866Z,20.50
2017-08-17T18:01:55.407Z,17.30
2017-08-17T18:04:22.919Z,19.30
2017-08-17T18:06:50.435Z,20.63
2017-08-17T18:09:17.979Z,15.37
2017-08-17T18:11:45.499Z,13.10
2017-08-17T18:14:13.014Z,15.50
2017-08-17T18:16:40.563Z,27.30
2017-08-17T18:19:08.092Z,20.00
2017-08-17T18:21:35.605Z,13.60
2017-08-17T18:24:03.149Z,16.43
2017-08-17T18:26:30.671Z,17.30
2017-08-17T18:28:58.188Z,21.83
2017-08-17T18:31:25.735Z,17.40
2017-08-17T18:33:53.246Z,22.13
2017-08-17T18:36:20.767Z,23.47
2017-08-17T18:38:48.319Z,17.43
2017-08-17T18:41:15.835Z,24.17
2017-08-17T18:43:43.355Z,16.70
2017-08-17T18:46:10.890Z,25.90
2017-08-17T18:48:38.408Z,13.27
2017-08-17T18:51:05.927Z,14.23
2017-08-17T18:53:33.471Z,15.60
2017-08-17T18:56:00.983Z,20.77
2017-08-17T18:58:28.495Z,17.47
2017-08-17T19:00:56.039Z,22.60
2017-08-17T19:03:23.559Z,16.30
2017-08-17T19:05:51.121Z,22.20
2017-08-17T19:08:18.663Z,24.03
2017-08-17T19:10:46.195Z,24.77
2017-08-17T19:13:13.707Z,17.57
2017-08-17T19:15:41.250Z,23.17
2017-08-17T19:18:08.767Z,21.10
2017-08-17T19:20:36.286Z,15.20
2017-08-17T19:23:03.818Z,17.43
2017-08-17T19:25:31.339Z,22.97
2017-08-17T19:27:58.863Z,21.53
2017-08-17T19:30:26.398Z,22.27
2017-08-17T19:32:53.910Z,16.87
2017-08-17T19:35:21.420Z,24.03
2017-08-17T19:37:49.007Z,21.23
2017-08-17T19:40:16.527Z,19.33
2017-08-17T19:42:44.071Z,24.37
2017-08-17T19:45:11.626Z,17.30
2017-08-17T19:47:39.138Z,28.50
2017-08-17T19:50:06.666Z,19.33
2017-08-17T19:52:34.216Z,16.90
2017-08-17T19:55:01.751Z,22.80
2017-08-17T19:57:29.266Z,26.30
2017-08-17T19:59:56.803Z,20.50
2017-08-17T20:02:24.323Z,23.40
2017-08-17T20:04:51.845Z,23.17
2017-08-17T20:07:19.394Z,24.33
2017-08-17T20:09:46.923Z,20.07
2017-08-17T20:12:14.478Z,22.83
2017-08-17T20:14:42.043Z,19.37
2017-08-17T20:17:09.558Z,20.23
2017-08-17T20:19:37.095Z,18.27
2017-08-17T20:22:04.640Z,22.57
2017-08-17T20:24:32.164Z,19.53
2017-08-17T20:26:59.691Z,22.80
2017-08-17T20:29:27.227Z,25.40
2017-08-17T20:31:54.752Z,21.83
2017-08-17T20:34:22.344Z,17.67
2017-08-17T20:36:49.923Z,19.80
2017-08-17T20:39:17.547Z,22.23
2017-08-17T20:41:45.108Z,25.90
2017-08-17T20:44:12.651Z,27.70
2017-08-17T20:46:40.171Z,29.60
2017-08-17T20:49:07.837Z,20.73
2017-08-17T20:51:35.418Z,20.23
2017-08-17T20:54:02.934Z,29.10
2017-08-17T20:56:30.411Z,78.23
2017-08-17T20:58:57.987Z,81.13
2017-08-17T21:01:25.506Z,60.80
2017-08-17T21:03:53.028Z,59.17
2017-08-17T21:06:20.599Z,49.13
2017-08-17T21:08:48.119Z,65.97
2017-08-17T21:11:15.636Z,51.60
2017-08-17T21:13:43.179Z,57.67
2017-08-17T21:16:10.704Z,60.83
2017-08-17T21:18:38.223Z,38.53
2017-08-17T21:21:05.758Z,33.97
2017-08-17T21:23:33.275Z,39.47
2017-08-17T21:26:00.819Z,35.10
2017-08-17T21:28:28.344Z,33.80
2017-08-17T21:30:55.866Z,27.17
2017-08-17T21:33:23.435Z,30.43
2017-08-17T21:35:50.959Z,25.60
2017-08-17T21:38:18.482Z,28.73
2017-08-17T21:40:46.026Z,27.97
2017-08-17T21:43:13.544Z,22.57
2017-08-17T21:45:41.084Z,33.23
2017-08-17T21:48:08.615Z,31.07
2017-08-17T21:50:36.123Z,29.20
2017-08-17T21:53:03.663Z,56.33
2017-08-17T21:55:31.167Z,58.77
2017-08-17T21:57:58.679Z,82.43
2017-08-17T22:00:26.211Z,117.77
2017-08-17T22:02:53.756Z,105.07
2017-08-17T22:05:21.291Z,91.10
2017-08-17T22:07:48.803Z,56.07
2017-08-17T22:10:16.310Z,33.80
2017-08-17T22:12:44.422Z,41.57
2017-08-17T22:15:11.940Z,36.20
2017-08-17T22:17:39.458Z,41.77
2017-08-17T22:20:06.995Z,31.00
2017-08-17T22:22:34.538Z,34.87
2017-08-17T22:25:02.052Z,32.53
2017-08-17T22:27:29.561Z,27.73
2017-08-17T22:29:57.100Z,29.23
2017-08-17T22:32:24.612Z,29.00
2017-08-17T22:34:52.114Z,30.23
2017-08-17T22:37:19.651Z,30.90
2017-08-17T22:39:47.163Z,27.03
2017-08-17T22:42:14.675Z,27.37
2017-08-17T22:44:42.216Z,41.07
2017-08-17T22:47:09.731Z,30.10
2017-08-17T22:49:37.255Z,41.40
2017-08-17T22:52:04.792Z,35.80
2017-08-17T22:54:32.267Z,35.03
2017-08-17T22:56:59.807Z,30.33
2017-08-17T22:59:27.343Z,34.80
2017-08-17T23:01:54.854Z,29.57
2017-08-17T23:04:22.367Z,35.60
2017-08-17T23:06:49.912Z,37.63
2017-08-17T23:09:17.427Z,47.27
2017-08-17T23:11:44.967Z,78.30
2017-08-17T23:14:12.487Z,97.83
2017-08-17T23:16:40.002Z,139.77
2017-08-17T23:19:07.551Z,155.97
2017-08-17T23:21:35.066Z,110.33
2017-08-17T23:24:02.592Z,122.10
2017-08-17T23:26:30.126Z,97.37
2017-08-17T23:28:57.667Z,98.63
2017-08-17T23:31:25.183Z,102.60
2017-08-17T23:33:52.719Z,70.90
2017-08-17T23:36:20.226Z,56.23
2017-08-17T23:38:47.756Z,110.70
2017-08-17T23:41:15.304Z,109.83
2017-08-17T23:43:42.828Z,102.60
2017-08-17T23:46:10.351Z,137.63
2017-08-17T23:48:37.895Z,115.63
2017-08-17T23:51:05.415Z,98.80
2017-08-17T23:53:32.929Z,75.93
2017-08-17T23:56:00.476Z,66.93
2017-08-17T23:58:27.991Z,56.83
